Flight Track Log - Related Links

Times and Time Zones

All times are in EDT time to prevent confusion due to time zone crossing. See the SWA3355 flight status page for this flight to view local times or setup timezone preferences in your user account.

Time Position Orientation Groundspeed Altitude Reporting Facility
EDT Latitude Longitude Course Direction KTS MPH feet Rate Location/Type
Sat 10:58:03 PM 33.4536 -112.1939 279° West 270 311 7,300  Level Albuquerque Center
Sat 10:59:04 PM 33.5264 -112.1806 North 274 315 10,400 2,361 Climbing Albuquerque Center
Sat 11:00:05 PM 33.6047 -112.1319 27° Northeast 331 381 12,100 2,262 Climbing Albuquerque Center
Sat 11:01:00 PM 34.0411 -111.7422 40° Northeast  Level FlightAware Approximate
Sat 11:01:06 PM 33.6789 -112.0647 37° Northeast 334 384 15,000  Level Albuquerque Center
Sat 11:02:07 PM 33.7733 -111.9806 37° Northeast 350 403 17,500 2,311 Climbing Albuquerque Center
Sat 11:03:08 PM 33.8536 -111.9075 37° Northeast 362 417 19,700 2,066 Climbing Albuquerque Center
Sat 11:04:09 PM 33.9439 -111.8258 37° Northeast 373 429 21,700 1,721 Climbing Albuquerque Center
Sat 11:05:10 PM 34.0306 -111.7469 37° Northeast 385 443 23,200 1,475 Climbing Albuquerque Center
Sat 11:06:11 PM 34.1269 -111.6789 30° Northeast 402 463 24,700 1,377 Climbing Albuquerque Center
Sat 11:07:12 PM 34.1939 -111.5989 45° Northeast 405 466 26,000 1,377 Climbing Albuquerque Center
Sat 11:08:13 PM 34.2956 -111.4842 43° Northeast 413 475 27,500 1,230 Climbing Albuquerque Center
Sat 11:09:14 PM 34.3803 -111.3858 44° Northeast 418 481 28,500 1,131 Climbing Albuquerque Center
Sat 11:10:15 PM 34.4678 -111.2842 44° Northeast 430 495 29,800 1,279 Climbing Albuquerque Center
Sat 11:11:16 PM 34.5539 -111.1842 44° Northeast 431 496 31,100 1,131 Climbing Albuquerque Center
Sat 11:12:17 PM 34.6397 -111.0850 44° Northeast 430 495 32,100 984 Climbing Albuquerque Center
Sat 11:13:18 PM 34.7253 -110.9844 44° Northeast 430 495 33,100 738 Climbing Albuquerque Center
Sat 11:14:19 PM 34.8117 -110.8822 44° Northeast 430 495 33,600 639 Climbing Albuquerque Center
Sat 11:15:20 PM 34.8992 -110.7783 44° Northeast 436 502 34,400 694 Climbing Albuquerque Center
Sat 11:16:20 PM 34.9881 -110.6722 44° Northeast 436 502 35,000 298 Climbing Albuquerque Center
Sat 11:17:21 PM 35.0844 -110.5569 44° Northeast 435 501 35,000  Level Albuquerque Center
Sat 11:18:22 PM 35.1661 -110.4617 44° Northeast 429 494 35,000  Level Albuquerque Center
Sat 11:19:23 PM 35.2486 -110.3653 44° Northeast 426 490 35,000  Level Albuquerque Center
Sat 11:20:24 PM 35.3447 -110.2475 45° Northeast 434 499 35,000  Level Albuquerque Center
Sat 11:21:25 PM 35.4275 -110.1489 44° Northeast 435 501 35,000  Level Albuquerque Center
Sat 11:22:27 PM 35.5108 -110.0472 45° Northeast 437 503 35,000  Level Albuquerque Center
Sat 11:23:27 PM 35.6083 -109.9317 44° Northeast 437 503 35,000  Level Albuquerque Center
Sat 11:24:28 PM 35.6922 -109.8303 44° Northeast 437 503 35,000  Level Albuquerque Center
Sat 11:25:29 PM 35.7756 -109.7289 45° Northeast 438 504 35,000  Level Albuquerque Center
Sat 11:26:30 PM 35.8733 -109.6111 44° Northeast 438 504 35,000  Level Albuquerque Center
Sat 11:27:31 PM 35.9575 -109.5089 44° Northeast 439 505 35,000  Level Albuquerque Center
Sat 11:28:32 PM 36.0397 -109.4067 45° Northeast 439 505 35,000  Level Albuquerque Center
Sat 11:29:33 PM 36.1378 -109.2869 45° Northeast 439 505 35,000  Level Albuquerque Center
Sat 11:30:34 PM 36.2214 -109.1850 45° Northeast 439 505 35,000  Level Albuquerque Center
Sat 11:31:35 PM 36.3047 -109.0803 45° Northeast 439 505 35,000  Level Albuquerque Center
Sat 11:32:36 PM 36.4019 -108.9597 45° Northeast 439 505 35,000  Level Albuquerque Center
Sat 11:34:01 PM 36.5289 -108.8047 44° Northeast 439 505 35,000  Level Denver Center
Sat 11:35:02 PM 36.6111 -108.7008 45° Northeast 439 505 35,000  Level Denver Center
Sat 11:36:03 PM 36.6936 -108.5967 45° Northeast 439 505 35,000  Level Denver Center
Sat 11:37:04 PM 36.7886 -108.4769 45° Northeast 439 505 35,000  Level Denver Center
Sat 11:38:05 PM 36.8708 -108.3733 45° Northeast 438 504 35,000  Level Denver Center
Sat 11:39:06 PM 36.9522 -108.2689 46° Northeast 438 504 35,000  Level Denver Center
Sat 11:40:06 PM 37.0472 -108.1497 45° Northeast 436 502 35,000  Level Denver Center
Sat 11:41:07 PM 37.1303 -108.0436 46° Northeast 440 506 35,000  Level Denver Center
Sat 11:42:08 PM 37.2119 -107.9378 46° Northeast 441 507 35,000  Level Denver Center
Sat 11:43:09 PM 37.3081 -107.8147 46° Northeast 441 507 35,000  Level Denver Center
Sat 11:44:10 PM 37.3900 -107.7086 46° Northeast 441 507 35,000  Level Denver Center
Sat 11:45:10 PM 37.4722 -107.6017 46° Northeast 441 507 35,000  Level Denver Center
Sat 11:46:11 PM 37.5683 -107.4764 46° Northeast 442 509 35,000  Level Denver Center
Sat 11:47:12 PM 37.6508 -107.3694 46° Northeast 444 511 35,000  Level Denver Center
Sat 11:48:13 PM 37.7331 -107.2617 46° Northeast 444 511 35,000  Level Denver Center
Sat 11:49:14 PM 37.8225 -107.1419 47° Northeast 444 511 35,000  Level Denver Center
Sat 11:50:14 PM 37.9039 -107.0358 46° Northeast 441 507 35,000  Level Denver Center
Sat 11:51:15 PM 37.9961 -106.9122 47° Northeast 435 501 35,000  Level Denver Center
Sat 11:52:16 PM 38.0753 -106.8064 46° Northeast 433 498 35,000  Level Denver Center
Sat 11:53:17 PM 38.1550 -106.7008 46° Northeast 433 498 35,000  Level Denver Center
Sat 11:54:17 PM 38.2494 -106.5764 46° Northeast 434 499 35,000  Level Denver Center
Sat 11:55:18 PM 38.3214 -106.4858 45° Northeast 437 503 35,000  Level Denver Center
Sat 11:56:19 PM 38.4103 -106.3772 44° Northeast 438 504 35,000  Level Denver Center
Sat 11:57:19 PM 38.5150 -106.2467 44° Northeast 439 505 35,000  Level Denver Center
Sat 11:58:20 PM 38.5944 -106.1467 45° Northeast 441 507 35,000  Level Denver Center
Sat 11:59:21 PM 38.6781 -106.0419 44° Northeast 442 509 35,000 -1,388 Level Denver Center
Sun 12:00:21 AM 38.7819 -105.9111 44° Northeast 441 507 32,200 -2,479 Descending Denver Center
Sun 12:01:22 AM 38.8683 -105.8017 45° Northeast 439 505 30,000 -2,164 Descending Denver Center
Sun 12:02:23 AM 38.9522 -105.6950 45° Northeast 430 495 27,800 -2,281 Descending Denver Center
Sun 12:03:23 AM 39.0344 -105.5894 45° Northeast 429 494 25,400 -2,231 Descending Denver Center
Sun 12:04:24 AM 39.1100 -105.4931 45° Northeast 407 468 23,300 -2,213 Descending Denver Center
Sun 12:05:25 AM 39.1886 -105.3922 45° Northeast 391 450 20,900 -2,132 Descending Denver Center
Sun 12:06:25 AM 39.2608 -105.2878 48° Northeast 381 438 19,000 -1,140 Descending Denver Center
Sun 12:07:26 AM 39.2853 -105.1636 76° East 357 411 18,600 -1,426 Descending Denver Center
Sun 12:08:27 AM 39.3172 -105.0344 72° East 357 411 16,100 -2,281 Descending Denver Center
Sun 12:09:27 AM 39.3753 -104.9378 52° Northeast 345 397 14,000 -2,132 Descending Denver Center
Sun 12:10:28 AM 39.4297 -104.8425 53° Northeast 331 381 11,800 -1,721 Descending Denver Center
Sun 12:11:29 AM 39.4825 -104.7542 52° Northeast 312 359 10,500 -942 Descending Denver Center
Sun 12:12:29 AM 39.5436 -104.6997 34° Northeast 272 313 9,900 -397 Descending Denver Center
Sun 12:13:30 AM 39.6031 -104.6600 27° Northeast 248 285 9,700 -645 Descending Denver Center
Sun 12:14:30 AM 39.6669 -104.6636 358° North 217 250 8,600 -1,041 Descending Denver Center
Sun 12:15:31 AM 39.7192 -104.6617 North 197 227 7,600 -984 Descending Denver Center
Sun 12:16:32 AM 39.7714 -104.6614 360° North 193 222 6,600 -893 Descending Denver Center
Sun 12:17:32 AM 39.8114 -104.6614 360° North 146 168 5,800 -595 Descending Denver Center
Sun 12:18:33 AM 39.8439 -104.6597 North 134 154 5,400 -393 Descending Denver Center
Sun 12:20:00 AM 39.8500 -104.6667 North  Level FlightAware Approximate
Sun 12:27:00 AM 39.8617 -104.6732 North  Level Estimated
Sun 12:28:00 AM 39.8617 -104.6732 North  Level Estimated

Login

Don't have an account? Register now (free) for customized features, flight alerts, and more!